createdAt,value
2018-09-08T00:00:11.737Z,76.76
2018-09-08T00:02:41.252Z,76.84
2018-09-08T00:05:16.366Z,76.64
2018-09-08T00:07:45.746Z,76.05
2018-09-08T00:10:14.451Z,76.08
2018-09-08T00:12:43.115Z,76.31
2018-09-08T00:15:17.031Z,76.43
2018-09-08T00:17:51.004Z,76.30
2018-09-08T00:20:25.071Z,76.71
2018-09-08T00:22:58.746Z,76.43
2018-09-08T00:25:32.467Z,76.55
2018-09-08T00:28:05.447Z,77.47
2018-09-08T00:30:35.031Z,77.34
2018-09-08T00:33:03.736Z,77.70
2018-09-08T00:35:33.856Z,77.27
2018-09-08T00:38:02.736Z,76.79
2018-09-08T00:40:31.452Z,77.15
2018-09-08T00:43:00.131Z,77.64
2018-09-08T00:45:28.780Z,77.52
2018-09-08T00:47:57.383Z,77.68
2018-09-08T00:50:25.972Z,77.62
2018-09-08T00:52:55.609Z,77.32
2018-09-08T00:55:24.354Z,76.90
2018-09-08T00:57:53.007Z,76.85
2018-09-08T01:00:21.728Z,77.32
2018-09-08T01:02:50.385Z,76.88
2018-09-08T01:05:21.756Z,77.12
2018-09-08T01:07:50.376Z,77.05
2018-09-08T01:10:19.143Z,76.94
2018-09-08T01:12:47.784Z,77.03
2018-09-08T01:15:16.311Z,77.51
2018-09-08T01:17:45.180Z,76.55
2018-09-08T01:20:14.387Z,77.59
2018-09-08T01:22:43.071Z,78.22
2018-09-08T01:25:14.749Z,77.98
2018-09-08T01:27:44.133Z,77.60
2018-09-08T01:30:12.701Z,77.66
2018-09-08T01:32:41.408Z,77.42
2018-09-08T01:35:10.427Z,77.61
2018-09-08T01:37:39.277Z,78.09
2018-09-08T01:40:08.952Z,78.41
2018-09-08T01:42:37.752Z,78.08
2018-09-08T01:45:06.815Z,78.10
2018-09-08T01:47:35.681Z,77.92
2018-09-08T01:50:04.530Z,77.64
2018-09-08T01:52:33.321Z,77.65
2018-09-08T01:55:02.089Z,77.43
2018-09-08T01:57:30.903Z,77.33
2018-09-08T01:59:59.553Z,77.09
2018-09-08T02:02:29.079Z,77.45
2018-09-08T02:04:58.551Z,77.88
2018-09-08T02:07:27.259Z,77.35
2018-09-08T02:09:56.294Z,77.66
2018-09-08T02:12:25.471Z,76.96
2018-09-08T02:14:54.133Z,77.40
2018-09-08T02:17:22.800Z,76.69
2018-09-08T02:19:52.014Z,77.11
2018-09-08T02:22:20.592Z,77.01
2018-09-08T02:24:49.304Z,77.19
2018-09-08T02:27:17.964Z,76.92
2018-09-08T02:29:46.644Z,76.62
2018-09-08T02:32:15.474Z,76.82
2018-09-08T02:34:44.196Z,76.43
2018-09-08T02:37:13.218Z,76.02
2018-09-08T02:39:42.393Z,76.46
2018-09-08T02:42:11.092Z,76.41
2018-09-08T02:44:39.764Z,75.54
2018-09-08T02:47:08.577Z,75.86
2018-09-08T02:49:48.209Z,76.24
2018-09-08T02:52:17.256Z,76.87
2018-09-08T02:54:44.544Z,76.82
2018-09-08T02:57:12.702Z,77.39
2018-09-08T02:59:40.181Z,76.80
2018-09-08T03:02:07.524Z,77.27
2018-09-08T03:04:34.816Z,77.19
2018-09-08T03:07:06.229Z,76.94
2018-09-08T03:09:33.798Z,76.27
2018-09-08T03:12:01.079Z,76.56
2018-09-08T03:14:29.266Z,76.19
2018-09-08T03:16:56.559Z,75.74
2018-09-08T03:19:23.875Z,76.86
2018-09-08T03:21:51.151Z,76.77
2018-09-08T03:24:18.423Z,76.89
2018-09-08T03:26:46.347Z,77.89
2018-09-08T03:29:13.632Z,77.01
2018-09-08T03:31:40.922Z,77.07
2018-09-08T03:34:08.231Z,78.24
2018-09-08T03:36:36.292Z,77.43
2018-09-08T03:39:04.087Z,77.78
2018-09-08T03:41:31.407Z,78.08
2018-09-08T03:43:58.699Z,77.63
2018-09-08T03:46:26.259Z,77.53
2018-09-08T03:48:53.604Z,77.64
2018-09-08T03:51:21.776Z,77.54
2018-09-08T03:53:49.062Z,76.92
2018-09-08T03:56:16.414Z,77.13
2018-09-08T03:58:43.743Z,77.03
2018-09-08T04:01:11.030Z,76.86
2018-09-08T04:03:39.633Z,77.21
2018-09-08T04:06:08.413Z,77.29
2018-09-08T04:08:37.129Z,77.52
2018-09-08T04:11:06.138Z,77.79
2018-09-08T04:13:34.980Z,77.16
2018-09-08T04:16:03.892Z,77.32
2018-09-08T04:18:32.604Z,77.49
2018-09-08T04:21:01.257Z,76.36
2018-09-08T04:23:29.944Z,76.73
2018-09-08T04:25:58.968Z,76.67
2018-09-08T04:28:27.607Z,76.68
2018-09-08T04:30:56.155Z,77.27
2018-09-08T04:33:24.679Z,76.46
2018-09-08T04:35:53.588Z,76.86
2018-09-08T04:38:22.476Z,77.07
2018-09-08T04:40:51.272Z,76.38
2018-09-08T04:43:20.034Z,76.60
2018-09-08T04:45:48.735Z,76.46
2018-09-08T04:48:17.612Z,76.57
2018-09-08T04:50:46.195Z,76.67
2018-09-08T04:53:15.158Z,76.09
2018-09-08T04:55:43.859Z,76.19
2018-09-08T04:58:12.565Z,76.64
2018-09-08T05:00:42.217Z,76.15
2018-09-08T05:03:11.354Z,76.15
2018-09-08T05:05:40.304Z,75.58
2018-09-08T05:08:08.857Z,75.68
2018-09-08T05:10:37.693Z,76.44
2018-09-08T05:13:06.517Z,76.94
2018-09-08T05:15:35.796Z,76.54
2018-09-08T05:18:04.468Z,77.47
2018-09-08T05:20:33.327Z,77.49
2018-09-08T05:23:02.838Z,76.29
2018-09-08T05:25:32.589Z,76.19
2018-09-08T05:28:01.261Z,76.55
2018-09-08T05:30:29.943Z,76.32
2018-09-08T05:32:58.663Z,76.39
2018-09-08T05:35:27.736Z,75.43
2018-09-08T05:37:56.440Z,75.82
2018-09-08T05:40:25.253Z,75.81
2018-09-08T05:42:54.776Z,76.47
2018-09-08T05:45:23.477Z,76.78
2018-09-08T05:47:52.185Z,76.07
2018-09-08T05:50:20.867Z,75.59
2018-09-08T05:52:49.546Z,74.81
2018-09-08T05:55:19.060Z,74.88
2018-09-08T05:57:47.783Z,74.27
2018-09-08T06:00:16.871Z,74.49
2018-09-08T06:02:45.551Z,74.51
2018-09-08T06:05:14.828Z,75.03
2018-09-08T06:07:43.518Z,75.42
2018-09-08T06:10:12.976Z,75.04
2018-09-08T06:12:41.499Z,74.59
2018-09-08T06:15:10.780Z,74.83
2018-09-08T06:17:39.680Z,74.79
2018-09-08T06:20:08.376Z,74.39
2018-09-08T06:22:37.799Z,73.86
2018-09-08T06:25:06.580Z,73.43
2018-09-08T06:27:35.100Z,72.99
2018-09-08T06:30:03.697Z,72.02
2018-09-08T06:32:32.617Z,71.63
2018-09-08T06:35:01.308Z,71.65
2018-09-08T06:37:30.224Z,71.27
2018-09-08T06:39:58.795Z,71.33
2018-09-08T06:42:27.736Z,70.96
2018-09-08T06:44:56.462Z,70.57
2018-09-08T06:47:25.199Z,70.87
2018-09-08T06:49:53.786Z,70.60
2018-09-08T06:52:22.535Z,71.12
2018-09-08T06:54:51.081Z,70.67
2018-09-08T06:57:20.477Z,69.99
2018-09-08T06:59:49.057Z,69.85
2018-09-08T07:02:18.146Z,68.02
2018-09-08T07:04:47.080Z,68.47
2018-09-08T07:07:15.816Z,66.98
2018-09-08T07:09:44.951Z,67.21
2018-09-08T07:12:13.836Z,66.97
2018-09-08T07:14:43.104Z,65.44
2018-09-08T07:21:17.096Z,64.98
2018-09-08T07:23:45.883Z,63.52
2018-09-08T07:26:14.520Z,63.78
2018-09-08T07:28:43.402Z,63.88
2018-09-08T07:31:14.203Z,63.57
2018-09-08T07:33:42.834Z,63.42
2018-09-08T07:36:11.744Z,63.80
2018-09-08T07:38:40.290Z,63.56
2018-09-08T07:41:09.671Z,63.46
2018-09-08T07:43:39.176Z,62.83
2018-09-08T07:46:08.126Z,63.87
2018-09-08T07:48:36.789Z,64.50
2018-09-08T07:51:06.124Z,63.90
2018-09-08T07:53:34.797Z,63.14
2018-09-08T07:56:04.777Z,62.23
2018-09-08T07:58:40.078Z,62.05
2018-09-08T08:01:08.807Z,61.81
2018-09-08T08:03:37.502Z,61.42
2018-09-08T08:06:06.519Z,60.97
2018-09-08T08:08:35.289Z,60.25
2018-09-08T08:11:04.007Z,59.69
2018-09-08T08:13:32.620Z,59.42
2018-09-08T08:16:01.532Z,58.49
2018-09-08T08:18:30.265Z,58.16
2018-09-08T08:20:58.864Z,58.01
2018-09-08T08:23:27.397Z,58.82
2018-09-08T08:25:56.071Z,58.95
2018-09-08T08:28:25.339Z,58.51
2018-09-08T08:30:54.027Z,58.59
2018-09-08T08:33:22.730Z,58.41
2018-09-08T08:35:51.574Z,58.38
2018-09-08T08:38:20.332Z,56.86
2018-09-08T08:40:48.972Z,57.38
2018-09-08T08:43:17.524Z,56.61
2018-09-08T08:45:46.160Z,54.90
2018-09-08T08:48:15.071Z,54.28
2018-09-08T08:50:54.736Z,55.10
2018-09-08T08:53:34.429Z,55.50
2018-09-08T08:56:03.000Z,56.18
2018-09-08T08:58:32.407Z,55.44
2018-09-08T09:01:01.032Z,53.41
2018-09-08T09:03:29.741Z,52.94
2018-09-08T09:05:58.571Z,53.36
2018-09-08T09:08:27.505Z,54.67
2018-09-08T09:10:55.969Z,53.48
2018-09-08T09:13:24.670Z,52.36
2018-09-08T09:15:53.501Z,51.53
2018-09-08T09:18:33.230Z,52.22
2018-09-08T09:21:12.788Z,52.16
2018-09-08T09:24:32.544Z,53.02
2018-09-08T09:27:00.758Z,51.79
2018-09-08T09:29:29.416Z,51.83
2018-09-08T09:31:58.144Z,51.28
2018-09-08T09:34:27.815Z,49.93
2018-09-08T09:36:56.490Z,48.71
2018-09-08T09:39:25.199Z,48.98
2018-09-08T09:41:53.767Z,49.18
2018-09-08T09:44:22.961Z,47.48
2018-09-08T09:46:51.484Z,48.48
2018-09-08T09:49:20.236Z,49.38
2018-09-08T09:51:50.231Z,49.22
2018-09-08T09:54:18.936Z,49.79
2018-09-08T09:56:48.008Z,48.12
2018-09-08T09:59:16.949Z,47.90
2018-09-08T10:01:51.384Z,47.59
2018-09-08T10:04:20.227Z,47.30
2018-09-08T10:06:48.904Z,47.56
2018-09-08T10:09:22.276Z,47.35
2018-09-08T10:11:50.991Z,46.79
2018-09-08T10:14:19.911Z,45.16
2018-09-08T10:16:48.539Z,46.47
2018-09-08T10:19:18.093Z,46.00
2018-09-08T10:21:47.531Z,45.74
2018-09-08T10:24:16.194Z,43.19
2018-09-08T10:26:46.167Z,43.87
2018-09-08T10:29:14.816Z,44.49
2018-09-08T10:31:43.940Z,42.37
2018-09-08T10:34:12.701Z,43.41
2018-09-08T10:36:41.669Z,43.62
2018-09-08T10:39:10.699Z,42.57
2018-09-08T10:41:39.545Z,41.67
2018-09-08T10:44:09.040Z,42.32
2018-09-08T10:46:37.669Z,43.17
2018-09-08T10:49:06.392Z,43.72
2018-09-08T10:51:55.814Z,43.74
2018-09-08T10:54:25.424Z,43.28
2018-09-08T10:56:54.130Z,44.48
2018-09-08T10:59:22.827Z,44.37
2018-09-08T11:01:51.841Z,44.48
2018-09-08T11:04:20.379Z,44.87
2018-09-08T11:06:49.076Z,44.07
2018-09-08T11:09:18.598Z,43.80
2018-09-08T11:11:47.376Z,45.22
2018-09-08T11:14:16.062Z,45.60
2018-09-08T11:16:44.939Z,44.75
2018-09-08T11:19:14.914Z,44.75
2018-09-08T11:21:43.651Z,44.81
2018-09-08T11:24:13.148Z,43.34
2018-09-08T11:26:41.724Z,43.10
2018-09-08T11:29:10.739Z,43.95
2018-09-08T11:31:39.504Z,42.85
2018-09-08T11:34:08.215Z,41.83
2018-09-08T11:36:36.882Z,40.92
2018-09-08T11:39:06.548Z,41.77
2018-09-08T11:41:35.472Z,41.06
2018-09-08T11:44:04.173Z,40.32
2018-09-08T11:46:33.396Z,40.86
2018-09-08T11:49:03.399Z,41.72
2018-09-08T11:51:32.299Z,42.58
2018-09-08T11:54:01.359Z,41.55
2018-09-08T11:56:30.083Z,42.38
2018-09-08T11:58:58.840Z,43.29
2018-09-08T12:01:27.372Z,41.94
2018-09-08T12:03:56.292Z,41.80
2018-09-08T12:06:24.894Z,38.18
2018-09-08T12:08:54.498Z,39.13
2018-09-08T12:11:25.948Z,38.87
2018-09-08T12:13:55.996Z,39.29
2018-09-08T12:16:24.627Z,39.39
2018-09-08T12:18:53.300Z,40.97
2018-09-08T12:21:22.103Z,40.15
2018-09-08T12:23:51.304Z,41.88
2018-09-08T12:26:19.988Z,40.69
2018-09-08T12:28:48.589Z,42.23
2018-09-08T12:31:17.348Z,43.41
2018-09-08T12:33:46.033Z,41.88
2018-09-08T12:36:14.753Z,41.94
2018-09-08T12:38:43.472Z,41.29
2018-09-08T12:41:13.537Z,40.71
2018-09-08T12:43:42.388Z,41.38
2018-09-08T12:46:11.196Z,41.83
2018-09-08T12:48:40.038Z,41.68
2018-09-08T12:51:09.271Z,41.28
2018-09-08T12:53:37.952Z,40.70
2018-09-08T12:56:07.109Z,41.54
2018-09-08T12:58:35.748Z,39.90
2018-09-08T13:01:04.425Z,41.52
2018-09-08T13:03:33.273Z,40.89
2018-09-08T13:06:02.220Z,39.32
2018-09-08T13:08:31.084Z,40.78
2018-09-08T13:10:59.619Z,41.86
2018-09-08T13:13:28.249Z,41.62
2018-09-08T13:15:57.164Z,41.78
2018-09-08T13:18:26.440Z,43.19
2018-09-08T13:20:55.144Z,44.27
2018-09-08T13:23:23.727Z,44.52
2018-09-08T13:25:52.896Z,43.86
2018-09-08T13:28:22.257Z,43.08
2018-09-08T13:30:50.898Z,43.32
2018-09-08T13:33:19.537Z,43.70
2018-09-08T13:35:48.297Z,42.42
2018-09-08T13:38:16.964Z,42.61
2018-09-08T13:40:46.901Z,41.28
2018-09-08T13:43:15.552Z,40.96
2018-09-08T13:45:44.991Z,38.10
2018-09-08T13:48:13.723Z,39.38
2018-09-08T13:50:42.422Z,40.00
2018-09-08T13:53:13.888Z,39.51
2018-09-08T13:55:43.179Z,38.42
2018-09-08T13:58:11.763Z,38.96
2018-09-08T14:00:41.057Z,36.92
2018-09-08T14:03:10.424Z,37.64
2018-09-08T14:05:39.508Z,37.57
2018-09-08T14:08:11.639Z,38.38
2018-09-08T14:10:41.481Z,38.49
2018-09-08T14:13:10.192Z,37.49
2018-09-08T14:15:38.907Z,37.54
2018-09-08T14:18:07.604Z,36.66
2018-09-08T14:20:36.141Z,36.69
2018-09-08T14:23:04.945Z,36.75
2018-09-08T14:25:34.168Z,37.00
2018-09-08T14:28:03.564Z,36.88
2018-09-08T14:30:32.921Z,36.71
2018-09-08T14:33:01.748Z,37.36
2018-09-08T14:35:30.446Z,36.23
2018-09-08T14:37:59.154Z,36.82
2018-09-08T14:40:27.909Z,36.22
2018-09-08T14:42:57.329Z,36.72
2018-09-08T14:45:26.408Z,37.42
2018-09-08T14:47:55.524Z,37.44
2018-09-08T14:50:25.000Z,35.06
2018-09-08T14:52:53.721Z,36.26
2018-09-08T14:55:22.900Z,36.75
2018-09-08T14:57:51.542Z,36.51
2018-09-08T15:00:20.547Z,35.95
2018-09-08T15:02:50.197Z,35.83
2018-09-08T15:05:18.830Z,37.24
2018-09-08T15:07:50.412Z,37.94
2018-09-08T15:10:19.316Z,34.90
2018-09-08T15:12:47.951Z,36.29
2018-09-08T15:15:16.808Z,37.63
2018-09-08T15:17:45.771Z,37.47
2018-09-08T15:20:14.421Z,37.25
2018-09-08T15:22:43.303Z,36.30
2018-09-08T15:25:13.013Z,36.59
2018-09-08T15:27:42.499Z,36.59
2018-09-08T15:30:11.040Z,36.29
2018-09-08T15:32:39.880Z,35.91
2018-09-08T15:35:08.746Z,36.90
2018-09-08T15:37:37.336Z,37.64
2018-09-08T15:40:05.953Z,35.82
2018-09-08T15:42:35.427Z,36.91
2018-09-08T15:45:04.732Z,35.56
2018-09-08T15:47:33.429Z,36.13
2018-09-08T15:50:03.400Z,37.26
2018-09-08T15:52:32.221Z,36.86
2018-09-08T15:55:01.080Z,36.95
2018-09-08T15:57:29.924Z,37.50
2018-09-08T15:59:59.624Z,36.28
2018-09-08T16:02:28.609Z,36.60
2018-09-08T16:04:57.264Z,37.99
2018-09-08T16:07:26.327Z,37.91
2018-09-08T16:09:55.076Z,39.72
2018-09-08T16:12:25.006Z,39.09
2018-09-08T16:14:53.959Z,37.11
2018-09-08T16:23:17.910Z,27.45
2018-09-08T16:25:46.470Z,26.93
2018-09-08T16:28:15.487Z,26.23
2018-09-08T16:30:44.168Z,26.35
2018-09-08T16:33:12.895Z,27.31
2018-09-08T16:35:42.192Z,27.99
2018-09-08T16:38:10.897Z,30.92
2018-09-08T16:40:39.584Z,35.28
2018-09-08T16:43:08.208Z,40.10
2018-09-08T16:45:36.834Z,42.86
2018-09-08T16:48:05.603Z,45.85
2018-09-08T16:50:34.384Z,47.81
2018-09-08T16:53:03.599Z,48.61
2018-09-08T16:55:33.306Z,50.37
2018-09-08T16:58:02.688Z,52.03
2018-09-08T17:00:32.086Z,53.25
2018-09-08T17:03:00.595Z,53.73
2018-09-08T17:05:29.267Z,54.53
2018-09-08T17:07:58.541Z,55.17
2018-09-08T17:10:27.610Z,55.66
2018-09-08T17:12:56.317Z,55.74
2018-09-08T17:15:25.225Z,56.12
2018-09-08T17:17:54.496Z,55.02
2018-09-08T17:20:23.051Z,55.75
2018-09-08T17:22:51.737Z,56.58
2018-09-08T17:25:20.395Z,57.30
2018-09-08T17:27:48.929Z,57.44
2018-09-08T17:30:17.935Z,57.87
2018-09-08T17:32:46.583Z,57.63
2018-09-08T17:35:15.301Z,58.22
2018-09-08T17:37:43.816Z,57.92
2018-09-08T17:40:12.803Z,57.94
2018-09-08T17:42:41.581Z,58.45
2018-09-08T17:45:11.216Z,58.51
2018-09-08T17:47:40.540Z,59.61
2018-09-08T17:50:09.256Z,59.88
2018-09-08T17:52:38.012Z,60.89
2018-09-08T17:55:06.859Z,61.07
2018-09-08T17:57:35.803Z,60.08
2018-09-08T18:00:04.601Z,61.04
2018-09-08T18:02:33.298Z,61.20
2018-09-08T18:05:01.989Z,61.37
2018-09-08T18:07:30.657Z,61.05
2018-09-08T18:09:59.551Z,61.42
2018-09-08T18:12:28.204Z,61.30
2018-09-08T18:14:57.448Z,61.60
2018-09-08T18:17:26.210Z,61.84
2018-09-08T18:19:55.501Z,61.91
2018-09-08T18:22:24.293Z,61.54
2018-09-08T18:24:53.916Z,62.26
2018-09-08T18:27:22.727Z,62.26
2018-09-08T18:29:51.248Z,62.42
2018-09-08T18:32:19.968Z,61.50
2018-09-08T18:34:48.892Z,61.61
2018-09-08T18:37:17.416Z,61.52
2018-09-08T18:39:47.127Z,61.64
2018-09-08T18:42:15.899Z,62.31
2018-09-08T18:44:44.404Z,62.02
2018-09-08T18:47:13.905Z,62.56
2018-09-08T18:49:43.041Z,62.65
2018-09-08T18:52:12.487Z,63.25
2018-09-08T18:54:41.919Z,63.64
2018-09-08T18:57:11.936Z,62.79
2018-09-08T18:59:40.579Z,64.38
2018-09-08T19:02:10.187Z,64.59
2018-09-08T19:04:39.953Z,65.31
2018-09-08T19:07:08.808Z,65.32
2018-09-08T19:09:37.597Z,65.14
2018-09-08T19:12:06.279Z,64.86
2018-09-08T19:14:40.176Z,64.84
2018-09-08T19:17:09.257Z,64.85
2018-09-08T19:19:38.016Z,64.65
2018-09-08T19:22:07.598Z,63.90
2018-09-08T19:24:41.407Z,64.31
2018-09-08T19:27:10.300Z,63.68
2018-09-08T19:29:44.136Z,63.51
2018-09-08T19:32:12.922Z,63.37
2018-09-08T19:34:42.437Z,62.49
2018-09-08T19:37:11.516Z,62.74
2018-09-08T19:39:40.235Z,62.50
2018-09-08T19:42:09.364Z,62.70
2018-09-08T19:44:38.081Z,63.53
2018-09-08T19:47:12.092Z,63.09
2018-09-08T19:49:41.700Z,63.51
2018-09-08T19:52:14.579Z,63.29
2018-09-08T19:54:43.226Z,63.34
2018-09-08T19:57:18.318Z,63.02
2018-09-08T19:59:46.900Z,62.79
2018-09-08T20:02:16.236Z,63.08
2018-09-08T20:04:45.072Z,63.20
2018-09-08T20:07:15.070Z,62.84
2018-09-08T20:09:43.955Z,62.70
2018-09-08T20:12:12.927Z,62.96
2018-09-08T20:14:41.879Z,62.83
2018-09-08T20:17:10.799Z,63.55
2018-09-08T20:19:39.782Z,63.77
2018-09-08T20:22:09.895Z,64.26
2018-09-08T20:24:39.152Z,64.38
2018-09-08T20:27:07.790Z,64.01
2018-09-08T20:29:36.774Z,63.48
2018-09-08T20:32:05.332Z,63.36
2018-09-08T20:34:34.653Z,62.83
2018-09-08T20:37:03.240Z,62.87
2018-09-08T20:39:32.907Z,62.70
2018-09-08T20:42:02.388Z,62.96
2018-09-08T20:44:31.765Z,63.42
2018-09-08T20:47:00.709Z,63.46
2018-09-08T20:49:29.728Z,63.76
2018-09-08T20:51:58.637Z,64.43
2018-09-08T20:54:27.407Z,64.78
2018-09-08T20:56:56.053Z,65.19
2018-09-08T20:59:24.910Z,65.12
2018-09-08T21:01:54.066Z,65.95
2018-09-08T21:04:22.811Z,65.28
2018-09-08T21:06:51.409Z,66.16
2018-09-08T21:09:20.516Z,65.98
2018-09-08T21:11:49.984Z,66.54
2018-09-08T21:14:18.524Z,66.74
2018-09-08T21:16:47.075Z,66.12
2018-09-08T21:19:16.328Z,66.17
2018-09-08T21:21:45.218Z,64.58
2018-09-08T21:24:13.892Z,64.70
2018-09-08T21:26:42.525Z,64.58
2018-09-08T21:29:11.439Z,65.28
2018-09-08T21:31:40.120Z,65.42
2018-09-08T21:34:09.925Z,65.25
2018-09-08T21:36:39.565Z,64.71
2018-09-08T21:39:09.175Z,64.60
2018-09-08T21:41:37.999Z,64.86
2018-09-08T21:44:07.020Z,64.57
2018-09-08T21:46:35.916Z,63.75
2018-09-08T21:49:04.804Z,64.57
2018-09-08T21:51:34.112Z,64.47
2018-09-08T21:54:02.842Z,65.05
2018-09-08T21:56:31.456Z,65.08
2018-09-08T21:59:00.048Z,64.44
2018-09-08T22:01:29.287Z,64.38
2018-09-08T22:03:58.340Z,64.09
2018-09-08T22:06:27.351Z,64.45
2018-09-08T22:08:56.311Z,64.04
2018-09-08T22:11:24.983Z,65.12
2018-09-08T22:13:53.778Z,65.45
2018-09-08T22:16:22.349Z,65.46
2018-09-08T22:21:53.524Z,65.26
2018-09-08T22:24:22.167Z,65.03
2018-09-08T22:26:51.032Z,64.73
2018-09-08T22:29:19.855Z,65.46
2018-09-08T22:31:48.951Z,65.20
2018-09-08T22:34:18.160Z,65.86
2018-09-08T22:36:46.971Z,66.05
2018-09-08T22:39:15.985Z,65.44
2018-09-08T22:41:44.966Z,64.95
2018-09-08T22:44:14.290Z,65.56
2018-09-08T22:46:42.991Z,64.87
2018-09-08T22:49:12.231Z,64.98
2018-09-08T22:51:41.420Z,64.92
2018-09-08T22:54:09.945Z,65.87
2018-09-08T22:56:38.761Z,65.52
2018-09-08T22:59:08.833Z,65.59
2018-09-08T23:01:37.528Z,65.29
2018-09-08T23:04:06.447Z,65.64
2018-09-08T23:06:35.360Z,65.64
2018-09-08T23:09:04.831Z,65.68
2018-09-08T23:11:34.139Z,65.69
2018-09-08T23:14:03.035Z,65.80
2018-09-08T23:16:31.694Z,65.90
2018-09-08T23:19:00.379Z,65.60
2018-09-08T23:21:29.245Z,66.27
2018-09-08T23:23:57.903Z,66.51
2018-09-08T23:26:26.411Z,66.31
2018-09-08T23:28:55.348Z,66.25
2018-09-08T23:31:24.016Z,65.09
2018-09-08T23:33:53.212Z,66.33
2018-09-08T23:36:21.937Z,66.17
2018-09-08T23:38:50.705Z,66.16
2018-09-08T23:41:20.721Z,66.49
2018-09-08T23:43:49.722Z,66.65
2018-09-08T23:46:18.340Z,66.69
2018-09-08T23:48:47.062Z,66.85
2018-09-08T23:51:15.925Z,66.90
2018-09-08T23:53:45.118Z,66.57
2018-09-08T23:56:15.105Z,67.15
2018-09-08T23:58:44.063Z,66.96
